Terminal Aerodrome Forecast
Issued by NWS

Home | Current Version | Previous Version | Text Only | Print | Product List | Glossary On
Versions: 1 2 3 4 5 6 7 8 9 10 11 12 13
000
FTUS43 KIND 211120
TAFHUF
TAF
KHUF 211120Z 2112/2212 VRB03KT P6SM SCT040 BKN200
     FM211800 21006KT P6SM VCTS BKN035CB BKN040
     FM220100 18004KT P6SM SCT250
     FM220600 19004KT P6SM BKN070=

USA.gov is the U.S. government's official web portal to all federal, state and local government web resources and services.